sensor_id;sensor_type;location;lat;lon;timestamp;P1;durP1;ratioP1;P2;durP2;ratioP2
69434;SDS011;56625;54.322;18.582;2023-04-24T00:00:17;21.00;;;13.10;;
69434;SDS011;56625;54.322;18.582;2023-04-24T00:03:05;24.30;;;12.70;;
69434;SDS011;56625;54.322;18.582;2023-04-24T00:05:34;22.10;;;12.40;;
69434;SDS011;56625;54.322;18.582;2023-04-24T00:08:02;21.20;;;13.00;;
69434;SDS011;56625;54.322;18.582;2023-04-24T00:10:30;20.90;;;12.60;;
69434;SDS011;56625;54.322;18.582;2023-04-24T00:12:58;25.50;;;13.00;;
69434;SDS011;56625;54.322;18.582;2023-04-24T00:15:26;21.10;;;11.90;;
69434;SDS011;56625;54.322;18.582;2023-04-24T00:17:54;20.20;;;11.60;;
69434;SDS011;56625;54.322;18.582;2023-04-24T00:20:22;21.90;;;12.00;;
69434;SDS011;56625;54.322;18.582;2023-04-24T00:22:50;20.60;;;12.40;;
69434;SDS011;56625;54.322;18.582;2023-04-24T00:25:18;19.60;;;11.60;;
69434;SDS011;56625;54.322;18.582;2023-04-24T00:27:45;19.50;;;11.40;;
69434;SDS011;56625;54.322;18.582;2023-04-24T00:30:13;20.60;;;11.70;;
69434;SDS011;56625;54.322;18.582;2023-04-24T00:32:41;19.90;;;11.40;;
69434;SDS011;56625;54.322;18.582;2023-04-24T00:35:09;18.70;;;10.90;;
69434;SDS011;56625;54.322;18.582;2023-04-24T00:37:38;18.80;;;11.60;;
69434;SDS011;56625;54.322;18.582;2023-04-24T00:40:06;20.20;;;10.90;;
69434;SDS011;56625;54.322;18.582;2023-04-24T00:42:34;18.80;;;10.90;;
69434;SDS011;56625;54.322;18.582;2023-04-24T00:45:03;20.50;;;11.70;;
69434;SDS011;56625;54.322;18.582;2023-04-24T00:47:33;20.30;;;11.90;;
69434;SDS011;56625;54.322;18.582;2023-04-24T00:50:05;19.60;;;11.00;;
69434;SDS011;56625;54.322;18.582;2023-04-24T00:52:34;19.30;;;10.90;;
69434;SDS011;56625;54.322;18.582;2023-04-24T00:55:02;21.30;;;12.70;;
69434;SDS011;56625;54.322;18.582;2023-04-24T00:57:30;20.40;;;11.70;;
69434;SDS011;56625;54.322;18.582;2023-04-24T00:59:58;22.70;;;13.10;;
69434;SDS011;56625;54.322;18.582;2023-04-24T01:02:26;24.50;;;12.40;;
69434;SDS011;56625;54.322;18.582;2023-04-24T01:04:55;22.40;;;12.70;;
69434;SDS011;56625;54.322;18.582;2023-04-24T01:07:23;23.10;;;12.80;;
69434;SDS011;56625;54.322;18.582;2023-04-24T01:09:50;24.70;;;13.90;;
69434;SDS011;56625;54.322;18.582;2023-04-24T01:12:19;24.40;;;13.50;;
69434;SDS011;56625;54.322;18.582;2023-04-24T01:14:47;24.80;;;13.50;;
69434;SDS011;56625;54.322;18.582;2023-04-24T01:17:15;23.30;;;13.30;;
69434;SDS011;56625;54.322;18.582;2023-04-24T01:19:43;26.40;;;14.30;;
69434;SDS011;56625;54.322;18.582;2023-04-24T01:22:14;26.00;;;13.90;;
69434;SDS011;56625;54.322;18.582;2023-04-24T01:24:43;24.40;;;13.30;;
69434;SDS011;56625;54.322;18.582;2023-04-24T01:27:12;25.80;;;13.00;;
69434;SDS011;56625;54.322;18.582;2023-04-24T01:29:40;25.30;;;13.80;;
69434;SDS011;56625;54.322;18.582;2023-04-24T01:32:09;26.80;;;13.80;;
69434;SDS011;56625;54.322;18.582;2023-04-24T01:34:40;28.30;;;13.60;;
69434;SDS011;56625;54.322;18.582;2023-04-24T01:37:08;27.10;;;14.10;;
69434;SDS011;56625;54.322;18.582;2023-04-24T01:39:36;25.70;;;13.70;;
69434;SDS011;56625;54.322;18.582;2023-04-24T01:42:04;26.70;;;13.80;;
69434;SDS011;56625;54.322;18.582;2023-04-24T01:44:33;26.80;;;14.00;;
69434;SDS011;56625;54.322;18.582;2023-04-24T01:47:01;27.40;;;14.00;;
69434;SDS011;56625;54.322;18.582;2023-04-24T01:49:29;28.70;;;14.40;;
69434;SDS011;56625;54.322;18.582;2023-04-24T01:51:57;28.90;;;13.70;;
69434;SDS011;56625;54.322;18.582;2023-04-24T01:54:25;25.30;;;12.80;;
69434;SDS011;56625;54.322;18.582;2023-04-24T01:56:53;25.90;;;13.40;;
69434;SDS011;56625;54.322;18.582;2023-04-24T01:59:21;24.70;;;12.70;;
69434;SDS011;56625;54.322;18.582;2023-04-24T02:01:51;25.80;;;13.60;;
69434;SDS011;56625;54.322;18.582;2023-04-24T02:04:19;25.70;;;13.70;;
69434;SDS011;56625;54.322;18.582;2023-04-24T02:06:47;24.50;;;12.60;;
69434;SDS011;56625;54.322;18.582;2023-04-24T02:09:15;25.00;;;13.00;;
69434;SDS011;56625;54.322;18.582;2023-04-24T02:11:42;25.40;;;12.80;;
69434;SDS011;56625;54.322;18.582;2023-04-24T02:14:10;26.40;;;13.10;;
69434;SDS011;56625;54.322;18.582;2023-04-24T02:16:38;25.90;;;12.80;;
69434;SDS011;56625;54.322;18.582;2023-04-24T02:19:06;27.30;;;12.70;;
69434;SDS011;56625;54.322;18.582;2023-04-24T02:21:34;28.40;;;13.20;;
69434;SDS011;56625;54.322;18.582;2023-04-24T02:24:02;25.60;;;12.50;;
69434;SDS011;56625;54.322;18.582;2023-04-24T02:26:30;27.00;;;12.70;;
69434;SDS011;56625;54.322;18.582;2023-04-24T02:28:59;28.70;;;12.30;;
69434;SDS011;56625;54.322;18.582;2023-04-24T02:31:27;27.40;;;12.80;;
69434;SDS011;56625;54.322;18.582;2023-04-24T02:33:55;30.30;;;13.00;;
69434;SDS011;56625;54.322;18.582;2023-04-24T02:36:23;27.30;;;12.60;;
69434;SDS011;56625;54.322;18.582;2023-04-24T02:38:51;28.00;;;12.20;;
69434;SDS011;56625;54.322;18.582;2023-04-24T02:41:19;24.90;;;10.40;;
69434;SDS011;56625;54.322;18.582;2023-04-24T02:43:47;29.60;;;11.80;;
69434;SDS011;56625;54.322;18.582;2023-04-24T02:46:15;31.20;;;12.10;;
69434;SDS011;56625;54.322;18.582;2023-04-24T02:48:43;30.60;;;12.70;;
69434;SDS011;56625;54.322;18.582;2023-04-24T02:51:11;32.90;;;12.00;;
69434;SDS011;56625;54.322;18.582;2023-04-24T02:53:39;33.00;;;12.10;;
69434;SDS011;56625;54.322;18.582;2023-04-24T02:56:06;32.20;;;12.30;;
69434;SDS011;56625;54.322;18.582;2023-04-24T02:58:34;27.00;;;11.10;;
69434;SDS011;56625;54.322;18.582;2023-04-24T03:01:03;27.60;;;11.30;;
69434;SDS011;56625;54.322;18.582;2023-04-24T03:03:31;26.90;;;10.90;;
69434;SDS011;56625;54.322;18.582;2023-04-24T03:05:59;31.90;;;12.40;;
69434;SDS011;56625;54.322;18.582;2023-04-24T03:08:27;26.30;;;12.00;;
69434;SDS011;56625;54.322;18.582;2023-04-24T03:10:55;28.60;;;12.00;;
69434;SDS011;56625;54.322;18.582;2023-04-24T03:13:23;28.40;;;11.30;;
69434;SDS011;56625;54.322;18.582;2023-04-24T03:15:50;25.60;;;11.40;;
69434;SDS011;56625;54.322;18.582;2023-04-24T03:18:19;28.30;;;12.30;;
69434;SDS011;56625;54.322;18.582;2023-04-24T03:20:47;23.20;;;10.40;;
69434;SDS011;56625;54.322;18.582;2023-04-24T03:23:15;26.00;;;10.90;;
69434;SDS011;56625;54.322;18.582;2023-04-24T03:25:43;23.30;;;10.30;;
69434;SDS011;56625;54.322;18.582;2023-04-24T03:28:11;23.60;;;10.60;;
69434;SDS011;56625;54.322;18.582;2023-04-24T03:30:39;22.80;;;10.20;;
69434;SDS011;56625;54.322;18.582;2023-04-24T03:33:07;24.50;;;9.80;;
69434;SDS011;56625;54.322;18.582;2023-04-24T03:35:35;23.80;;;11.10;;
69434;SDS011;56625;54.322;18.582;2023-04-24T03:38:03;23.90;;;10.90;;
69434;SDS011;56625;54.322;18.582;2023-04-24T03:40:34;22.00;;;10.00;;
69434;SDS011;56625;54.322;18.582;2023-04-24T03:43:03;19.60;;;10.20;;
69434;SDS011;56625;54.322;18.582;2023-04-24T03:45:31;16.00;;;8.80;;
69434;SDS011;56625;54.322;18.582;2023-04-24T03:47:58;20.50;;;9.40;;
69434;SDS011;56625;54.322;18.582;2023-04-24T03:50:26;17.00;;;8.90;;
69434;SDS011;56625;54.322;18.582;2023-04-24T03:52:56;17.70;;;9.20;;
69434;SDS011;56625;54.322;18.582;2023-04-24T03:55:24;17.30;;;9.50;;
69434;SDS011;56625;54.322;18.582;2023-04-24T03:57:52;19.20;;;9.50;;
69434;SDS011;56625;54.322;18.582;2023-04-24T04:00:20;19.50;;;9.80;;
69434;SDS011;56625;54.322;18.582;2023-04-24T04:02:48;19.70;;;10.30;;
69434;SDS011;56625;54.322;18.582;2023-04-24T04:05:16;19.90;;;10.20;;
69434;SDS011;56625;54.322;18.582;2023-04-24T04:07:44;21.00;;;9.80;;
69434;SDS011;56625;54.322;18.582;2023-04-24T04:10:12;19.40;;;9.70;;
69434;SDS011;56625;54.322;18.582;2023-04-24T04:12:40;21.40;;;10.30;;
69434;SDS011;56625;54.322;18.582;2023-04-24T04:15:08;20.80;;;9.90;;
69434;SDS011;56625;54.322;18.582;2023-04-24T04:17:36;20.20;;;10.20;;
69434;SDS011;56625;54.322;18.582;2023-04-24T04:20:06;20.80;;;10.60;;
69434;SDS011;56625;54.322;18.582;2023-04-24T04:22:37;20.10;;;10.10;;
69434;SDS011;56625;54.322;18.582;2023-04-24T04:25:05;19.80;;;9.40;;
69434;SDS011;56625;54.322;18.582;2023-04-24T04:27:34;22.90;;;10.60;;
69434;SDS011;56625;54.322;18.582;2023-04-24T04:30:02;21.70;;;10.20;;
69434;SDS011;56625;54.322;18.582;2023-04-24T04:32:32;19.50;;;10.10;;
69434;SDS011;56625;54.322;18.582;2023-04-24T04:35:01;22.70;;;10.60;;
69434;SDS011;56625;54.322;18.582;2023-04-24T04:37:32;20.10;;;10.60;;
69434;SDS011;56625;54.322;18.582;2023-04-24T04:40:01;20.30;;;10.90;;
69434;SDS011;56625;54.322;18.582;2023-04-24T04:42:37;21.90;;;10.80;;
69434;SDS011;56625;54.322;18.582;2023-04-24T04:45:08;20.50;;;10.50;;
69434;SDS011;56625;54.322;18.582;2023-04-24T04:47:37;23.70;;;11.50;;
69434;SDS011;56625;54.322;18.582;2023-04-24T04:50:05;23.00;;;11.50;;
69434;SDS011;56625;54.322;18.582;2023-04-24T04:52:33;21.00;;;10.80;;
69434;SDS011;56625;54.322;18.582;2023-04-24T04:55:01;21.90;;;11.10;;
69434;SDS011;56625;54.322;18.582;2023-04-24T04:57:30;23.60;;;12.00;;
69434;SDS011;56625;54.322;18.582;2023-04-24T04:59:58;21.60;;;10.70;;
69434;SDS011;56625;54.322;18.582;2023-04-24T05:02:25;19.80;;;10.00;;
69434;SDS011;56625;54.322;18.582;2023-04-24T05:04:53;21.50;;;10.90;;
69434;SDS011;56625;54.322;18.582;2023-04-24T05:07:22;25.00;;;12.60;;
69434;SDS011;56625;54.322;18.582;2023-04-24T05:09:49;22.20;;;10.10;;
69434;SDS011;56625;54.322;18.582;2023-04-24T05:12:18;19.00;;;9.70;;
69434;SDS011;56625;54.322;18.582;2023-04-24T05:14:46;20.00;;;10.40;;
69434;SDS011;56625;54.322;18.582;2023-04-24T05:17:14;19.90;;;9.40;;
69434;SDS011;56625;54.322;18.582;2023-04-24T05:19:42;20.70;;;9.80;;
69434;SDS011;56625;54.322;18.582;2023-04-24T05:22:11;19.10;;;10.10;;
69434;SDS011;56625;54.322;18.582;2023-04-24T05:24:39;21.80;;;9.10;;
69434;SDS011;56625;54.322;18.582;2023-04-24T05:27:07;26.60;;;9.00;;
69434;SDS011;56625;54.322;18.582;2023-04-24T05:29:35;16.90;;;8.20;;
69434;SDS011;56625;54.322;18.582;2023-04-24T05:32:03;17.10;;;8.20;;
69434;SDS011;56625;54.322;18.582;2023-04-24T05:34:31;16.00;;;7.70;;
69434;SDS011;56625;54.322;18.582;2023-04-24T05:36:59;23.70;;;8.40;;
69434;SDS011;56625;54.322;18.582;2023-04-24T05:39:27;18.50;;;7.90;;
69434;SDS011;56625;54.322;18.582;2023-04-24T05:41:55;16.40;;;8.40;;
69434;SDS011;56625;54.322;18.582;2023-04-24T05:44:25;14.40;;;7.70;;
69434;SDS011;56625;54.322;18.582;2023-04-24T05:46:53;18.20;;;9.00;;
69434;SDS011;56625;54.322;18.582;2023-04-24T05:49:23;16.60;;;8.20;;
69434;SDS011;56625;54.322;18.582;2023-04-24T05:51:51;16.60;;;8.70;;
69434;SDS011;56625;54.322;18.582;2023-04-24T05:54:18;17.30;;;9.20;;
69434;SDS011;56625;54.322;18.582;2023-04-24T05:56:49;22.70;;;9.60;;
69434;SDS011;56625;54.322;18.582;2023-04-24T05:59:18;18.40;;;8.90;;
69434;SDS011;56625;54.322;18.582;2023-04-24T06:01:46;18.20;;;8.40;;
69434;SDS011;56625;54.322;18.582;2023-04-24T06:04:14;14.80;;;7.00;;
69434;SDS011;56625;54.322;18.582;2023-04-24T06:06:42;18.30;;;7.80;;
69434;SDS011;56625;54.322;18.582;2023-04-24T06:09:10;16.80;;;7.30;;
69434;SDS011;56625;54.322;18.582;2023-04-24T06:11:39;20.00;;;7.80;;
69434;SDS011;56625;54.322;18.582;2023-04-24T06:14:07;16.40;;;8.50;;
69434;SDS011;56625;54.322;18.582;2023-04-24T06:16:34;16.80;;;8.40;;
69434;SDS011;56625;54.322;18.582;2023-04-24T06:19:02;15.20;;;8.30;;
69434;SDS011;56625;54.322;18.582;2023-04-24T06:21:30;17.70;;;8.80;;
69434;SDS011;56625;54.322;18.582;2023-04-24T06:23:59;20.30;;;9.40;;
69434;SDS011;56625;54.322;18.582;2023-04-24T06:26:27;17.10;;;8.30;;
69434;SDS011;56625;54.322;18.582;2023-04-24T06:28:55;25.10;;;9.30;;
69434;SDS011;56625;54.322;18.582;2023-04-24T06:31:23;22.40;;;9.00;;
69434;SDS011;56625;54.322;18.582;2023-04-24T06:33:51;21.20;;;9.50;;
69434;SDS011;56625;54.322;18.582;2023-04-24T06:36:19;22.60;;;8.20;;
69434;SDS011;56625;54.322;18.582;2023-04-24T06:38:47;22.00;;;8.50;;
69434;SDS011;56625;54.322;18.582;2023-04-24T06:42:10;18.90;;;8.60;;
69434;SDS011;56625;54.322;18.582;2023-04-24T06:44:40;22.20;;;9.30;;
69434;SDS011;56625;54.322;18.582;2023-04-24T06:47:15;17.80;;;8.30;;
69434;SDS011;56625;54.322;18.582;2023-04-24T06:49:43;18.90;;;7.60;;
69434;SDS011;56625;54.322;18.582;2023-04-24T06:52:11;15.20;;;7.10;;
69434;SDS011;56625;54.322;18.582;2023-04-24T06:55:02;16.60;;;7.60;;
69434;SDS011;56625;54.322;18.582;2023-04-24T06:57:45;18.10;;;7.30;;
69434;SDS011;56625;54.322;18.582;2023-04-24T07:00:25;16.70;;;7.80;;
69434;SDS011;56625;54.322;18.582;2023-04-24T07:02:57;17.80;;;8.40;;
69434;SDS011;56625;54.322;18.582;2023-04-24T07:05:31;15.70;;;7.70;;
69434;SDS011;56625;54.322;18.582;2023-04-24T07:08:18;20.10;;;7.90;;
69434;SDS011;56625;54.322;18.582;2023-04-24T07:10:55;17.00;;;7.80;;
69434;SDS011;56625;54.322;18.582;2023-04-24T07:13:32;17.60;;;7.60;;
69434;SDS011;56625;54.322;18.582;2023-04-24T07:16:15;16.00;;;7.60;;
69434;SDS011;56625;54.322;18.582;2023-04-24T07:18:42;16.80;;;7.00;;
69434;SDS011;56625;54.322;18.582;2023-04-24T07:21:11;14.70;;;6.70;;
69434;SDS011;56625;54.322;18.582;2023-04-24T07:23:39;13.70;;;6.30;;
69434;SDS011;56625;54.322;18.582;2023-04-24T07:26:14;12.30;;;6.30;;
69434;SDS011;56625;54.322;18.582;2023-04-24T07:29:02;17.10;;;6.50;;
69434;SDS011;56625;54.322;18.582;2023-04-24T07:31:32;13.80;;;6.20;;
69434;SDS011;56625;54.322;18.582;2023-04-24T07:34:03;10.30;;;5.20;;
69434;SDS011;56625;54.322;18.582;2023-04-24T07:36:38;10.40;;;5.60;;
69434;SDS011;56625;54.322;18.582;2023-04-24T07:39:06;16.60;;;5.90;;
69434;SDS011;56625;54.322;18.582;2023-04-24T07:41:36;13.50;;;6.10;;
69434;SDS011;56625;54.322;18.582;2023-04-24T07:44:04;11.80;;;5.50;;
69434;SDS011;56625;54.322;18.582;2023-04-24T07:46:32;11.20;;;5.70;;
69434;SDS011;56625;54.322;18.582;2023-04-24T07:49:00;13.60;;;5.80;;
69434;SDS011;56625;54.322;18.582;2023-04-24T07:51:40;15.00;;;6.00;;
69434;SDS011;56625;54.322;18.582;2023-04-24T07:54:09;14.00;;;5.90;;
69434;SDS011;56625;54.322;18.582;2023-04-24T07:56:37;14.60;;;6.50;;
69434;SDS011;56625;54.322;18.582;2023-04-24T07:59:12;13.10;;;5.50;;
69434;SDS011;56625;54.322;18.582;2023-04-24T08:01:57;13.10;;;6.00;;
69434;SDS011;56625;54.322;18.582;2023-04-24T08:04:41;11.10;;;5.40;;
69434;SDS011;56625;54.322;18.582;2023-04-24T08:07:09;13.00;;;5.30;;
69434;SDS011;56625;54.322;18.582;2023-04-24T08:09:49;13.50;;;6.40;;
69434;SDS011;56625;54.322;18.582;2023-04-24T08:12:17;13.50;;;6.50;;
69434;SDS011;56625;54.322;18.582;2023-04-24T08:14:45;12.60;;;6.10;;
69434;SDS011;56625;54.322;18.582;2023-04-24T08:17:13;12.80;;;6.40;;
69434;SDS011;56625;54.322;18.582;2023-04-24T08:19:40;15.70;;;6.70;;
69434;SDS011;56625;54.322;18.582;2023-04-24T08:22:15;16.40;;;7.20;;
69434;SDS011;56625;54.322;18.582;2023-04-24T08:24:43;13.40;;;7.50;;
69434;SDS011;56625;54.322;18.582;2023-04-24T08:27:11;14.50;;;7.20;;
69434;SDS011;56625;54.322;18.582;2023-04-24T08:29:39;13.30;;;7.50;;
69434;SDS011;56625;54.322;18.582;2023-04-24T08:32:07;14.30;;;7.90;;
69434;SDS011;56625;54.322;18.582;2023-04-24T08:34:35;15.50;;;7.70;;
69434;SDS011;56625;54.322;18.582;2023-04-24T08:37:03;15.00;;;7.80;;
69434;SDS011;56625;54.322;18.582;2023-04-24T08:39:31;14.70;;;8.40;;
69434;SDS011;56625;54.322;18.582;2023-04-24T08:41:59;14.30;;;8.10;;
69434;SDS011;56625;54.322;18.582;2023-04-24T08:44:33;14.30;;;7.70;;
69434;SDS011;56625;54.322;18.582;2023-04-24T08:47:03;15.20;;;8.00;;
69434;SDS011;56625;54.322;18.582;2023-04-24T08:49:32;15.20;;;7.70;;
69434;SDS011;56625;54.322;18.582;2023-04-24T08:52:05;14.10;;;7.30;;
69434;SDS011;56625;54.322;18.582;2023-04-24T08:54:34;12.70;;;6.80;;
69434;SDS011;56625;54.322;18.582;2023-04-24T08:57:03;14.80;;;8.40;;
69434;SDS011;56625;54.322;18.582;2023-04-24T08:59:35;14.50;;;8.30;;
69434;SDS011;56625;54.322;18.582;2023-04-24T09:02:04;18.10;;;10.10;;
69434;SDS011;56625;54.322;18.582;2023-04-24T09:04:33;17.00;;;10.10;;
69434;SDS011;56625;54.322;18.582;2023-04-24T09:07:03;15.70;;;9.30;;
69434;SDS011;56625;54.322;18.582;2023-04-24T09:09:34;14.70;;;8.70;;
69434;SDS011;56625;54.322;18.582;2023-04-24T09:12:03;16.50;;;9.10;;
69434;SDS011;56625;54.322;18.582;2023-04-24T09:14:32;14.50;;;8.40;;
69434;SDS011;56625;54.322;18.582;2023-04-24T09:17:00;16.60;;;9.50;;
69434;SDS011;56625;54.322;18.582;2023-04-24T09:19:32;16.80;;;10.00;;
69434;SDS011;56625;54.322;18.582;2023-04-24T09:22:21;17.10;;;9.70;;
69434;SDS011;56625;54.322;18.582;2023-04-24T09:24:59;17.70;;;9.70;;
69434;SDS011;56625;54.322;18.582;2023-04-24T09:27:35;18.60;;;9.80;;
69434;SDS011;56625;54.322;18.582;2023-04-24T09:30:03;20.40;;;9.90;;
69434;SDS011;56625;54.322;18.582;2023-04-24T09:32:31;18.10;;;11.00;;
69434;SDS011;56625;54.322;18.582;2023-04-24T09:35:06;19.50;;;10.80;;
69434;SDS011;56625;54.322;18.582;2023-04-24T09:37:45;16.90;;;10.30;;
69434;SDS011;56625;54.322;18.582;2023-04-24T09:40:19;20.60;;;11.30;;
69434;SDS011;56625;54.322;18.582;2023-04-24T09:42:53;20.00;;;11.70;;
69434;SDS011;56625;54.322;18.582;2023-04-24T09:45:35;18.90;;;10.40;;
69434;SDS011;56625;54.322;18.582;2023-04-24T09:48:04;19.90;;;11.30;;
69434;SDS011;56625;54.322;18.582;2023-04-24T09:50:34;21.60;;;11.90;;
69434;SDS011;56625;54.322;18.582;2023-04-24T09:53:03;21.50;;;12.00;;
69434;SDS011;56625;54.322;18.582;2023-04-24T09:55:39;20.90;;;11.30;;
69434;SDS011;56625;54.322;18.582;2023-04-24T09:58:12;18.80;;;11.20;;
69434;SDS011;56625;54.322;18.582;2023-04-24T10:00:40;19.90;;;11.60;;
69434;SDS011;56625;54.322;18.582;2023-04-24T10:03:08;20.30;;;11.10;;
69434;SDS011;56625;54.322;18.582;2023-04-24T10:05:37;19.90;;;11.00;;
69434;SDS011;56625;54.322;18.582;2023-04-24T10:08:08;21.00;;;11.10;;
69434;SDS011;56625;54.322;18.582;2023-04-24T10:10:42;21.70;;;11.30;;
69434;SDS011;56625;54.322;18.582;2023-04-24T10:13:13;22.70;;;12.40;;
69434;SDS011;56625;54.322;18.582;2023-04-24T10:15:43;20.00;;;11.80;;
69434;SDS011;56625;54.322;18.582;2023-04-24T10:18:11;18.20;;;11.50;;
69434;SDS011;56625;54.322;18.582;2023-04-24T10:20:40;22.50;;;12.30;;
69434;SDS011;56625;54.322;18.582;2023-04-24T10:23:08;21.70;;;13.30;;
69434;SDS011;56625;54.322;18.582;2023-04-24T10:25:37;21.30;;;12.00;;
69434;SDS011;56625;54.322;18.582;2023-04-24T10:28:04;18.70;;;11.60;;
69434;SDS011;56625;54.322;18.582;2023-04-24T10:30:35;20.30;;;11.80;;
69434;SDS011;56625;54.322;18.582;2023-04-24T10:33:07;21.10;;;11.90;;
69434;SDS011;56625;54.322;18.582;2023-04-24T10:35:39;21.20;;;11.30;;
69434;SDS011;56625;54.322;18.582;2023-04-24T10:38:12;19.80;;;11.60;;
69434;SDS011;56625;54.322;18.582;2023-04-24T10:40:43;18.60;;;11.10;;
69434;SDS011;56625;54.322;18.582;2023-04-24T10:43:16;18.50;;;11.60;;
69434;SDS011;56625;54.322;18.582;2023-04-24T10:46:05;18.20;;;10.90;;
69434;SDS011;56625;54.322;18.582;2023-04-24T10:48:34;20.50;;;11.30;;
69434;SDS011;56625;54.322;18.582;2023-04-24T10:51:05;21.40;;;10.60;;
69434;SDS011;56625;54.322;18.582;2023-04-24T10:53:34;20.20;;;11.60;;
69434;SDS011;56625;54.322;18.582;2023-04-24T10:56:07;21.40;;;10.70;;
69434;SDS011;56625;54.322;18.582;2023-04-24T10:58:42;18.50;;;10.20;;
69434;SDS011;56625;54.322;18.582;2023-04-24T11:01:31;16.20;;;10.90;;
69434;SDS011;56625;54.322;18.582;2023-04-24T11:04:02;18.20;;;10.50;;
69434;SDS011;56625;54.322;18.582;2023-04-24T11:06:35;17.40;;;10.20;;
69434;SDS011;56625;54.322;18.582;2023-04-24T11:09:06;17.30;;;10.30;;
69434;SDS011;56625;54.322;18.582;2023-04-24T11:11:36;16.20;;;10.40;;
69434;SDS011;56625;54.322;18.582;2023-04-24T11:14:07;20.90;;;10.60;;
69434;SDS011;56625;54.322;18.582;2023-04-24T11:16:38;16.80;;;10.80;;
69434;SDS011;56625;54.322;18.582;2023-04-24T11:21:47;15.40;;;9.70;;
69434;SDS011;56625;54.322;18.582;2023-04-24T11:24:28;16.50;;;10.40;;
69434;SDS011;56625;54.322;18.582;2023-04-24T11:27:11;16.20;;;10.50;;
69434;SDS011;56625;54.322;18.582;2023-04-24T11:29:58;20.40;;;10.30;;
69434;SDS011;56625;54.322;18.582;2023-04-24T11:32:42;18.30;;;10.60;;
69434;SDS011;56625;54.322;18.582;2023-04-24T11:35:18;17.50;;;10.10;;
69434;SDS011;56625;54.322;18.582;2023-04-24T11:37:50;16.90;;;10.10;;
69434;SDS011;56625;54.322;18.582;2023-04-24T11:40:23;17.90;;;9.90;;
69434;SDS011;56625;54.322;18.582;2023-04-24T11:42:52;14.90;;;9.30;;
69434;SDS011;56625;54.322;18.582;2023-04-24T11:45:28;16.10;;;8.10;;
69434;SDS011;56625;54.322;18.582;2023-04-24T11:47:57;11.10;;;5.20;;
69434;SDS011;56625;54.322;18.582;2023-04-24T11:50:27;11.10;;;4.90;;
69434;SDS011;56625;54.322;18.582;2023-04-24T11:52:56;9.80;;;4.60;;
69434;SDS011;56625;54.322;18.582;2023-04-24T11:55:26;10.50;;;4.50;;
69434;SDS011;56625;54.322;18.582;2023-04-24T11:57:57;9.10;;;3.30;;
69434;SDS011;56625;54.322;18.582;2023-04-24T12:00:33;10.20;;;4.80;;
69434;SDS011;56625;54.322;18.582;2023-04-24T12:03:10;8.80;;;4.70;;
69434;SDS011;56625;54.322;18.582;2023-04-24T12:05:40;7.90;;;3.20;;
69434;SDS011;56625;54.322;18.582;2023-04-24T12:08:08;6.00;;;2.50;;
69434;SDS011;56625;54.322;18.582;2023-04-24T12:10:37;8.50;;;4.30;;
69434;SDS011;56625;54.322;18.582;2023-04-24T12:13:05;8.70;;;4.30;;
69434;SDS011;56625;54.322;18.582;2023-04-24T12:15:33;8.10;;;4.20;;
69434;SDS011;56625;54.322;18.582;2023-04-24T12:18:01;7.60;;;3.80;;
69434;SDS011;56625;54.322;18.582;2023-04-24T12:20:32;9.50;;;3.20;;
69434;SDS011;56625;54.322;18.582;2023-04-24T12:23:01;9.30;;;3.80;;
69434;SDS011;56625;54.322;18.582;2023-04-24T12:25:31;7.80;;;3.50;;
69434;SDS011;56625;54.322;18.582;2023-04-24T12:30:38;7.60;;;2.90;;
69434;SDS011;56625;54.322;18.582;2023-04-24T12:33:20;7.40;;;3.40;;
69434;SDS011;56625;54.322;18.582;2023-04-24T12:35:51;9.70;;;3.00;;
69434;SDS011;56625;54.322;18.582;2023-04-24T12:38:25;6.80;;;2.60;;
69434;SDS011;56625;54.322;18.582;2023-04-24T12:41:11;7.50;;;3.20;;
69434;SDS011;56625;54.322;18.582;2023-04-24T12:43:59;7.70;;;3.00;;
69434;SDS011;56625;54.322;18.582;2023-04-24T12:46:32;12.30;;;3.20;;
69434;SDS011;56625;54.322;18.582;2023-04-24T12:49:00;6.40;;;2.30;;
69434;SDS011;56625;54.322;18.582;2023-04-24T12:51:31;7.00;;;3.00;;
69434;SDS011;56625;54.322;18.582;2023-04-24T12:54:00;6.60;;;3.10;;
69434;SDS011;56625;54.322;18.582;2023-04-24T12:56:28;6.00;;;2.20;;
69434;SDS011;56625;54.322;18.582;2023-04-24T12:58:58;6.80;;;3.10;;
69434;SDS011;56625;54.322;18.582;2023-04-24T13:01:27;6.10;;;2.10;;
69434;SDS011;56625;54.322;18.582;2023-04-24T13:03:56;7.40;;;2.80;;
69434;SDS011;56625;54.322;18.582;2023-04-24T13:06:27;7.30;;;2.90;;
69434;SDS011;56625;54.322;18.582;2023-04-24T13:08:57;6.10;;;2.40;;
69434;SDS011;56625;54.322;18.582;2023-04-24T13:11:25;6.80;;;3.00;;
69434;SDS011;56625;54.322;18.582;2023-04-24T13:13:54;6.60;;;3.00;;
69434;SDS011;56625;54.322;18.582;2023-04-24T13:16:22;6.30;;;3.10;;
69434;SDS011;56625;54.322;18.582;2023-04-24T13:18:51;8.20;;;2.80;;
69434;SDS011;56625;54.322;18.582;2023-04-24T13:21:19;5.90;;;2.40;;
69434;SDS011;56625;54.322;18.582;2023-04-24T13:23:47;7.30;;;3.30;;
69434;SDS011;56625;54.322;18.582;2023-04-24T13:26:15;7.40;;;2.90;;
69434;SDS011;56625;54.322;18.582;2023-04-24T13:28:42;8.80;;;3.10;;
69434;SDS011;56625;54.322;18.582;2023-04-24T13:31:10;8.20;;;3.20;;
69434;SDS011;56625;54.322;18.582;2023-04-24T13:33:41;7.70;;;3.20;;
69434;SDS011;56625;54.322;18.582;2023-04-24T13:36:09;8.00;;;2.90;;
69434;SDS011;56625;54.322;18.582;2023-04-24T13:38:37;7.20;;;3.00;;
69434;SDS011;56625;54.322;18.582;2023-04-24T13:41:05;7.80;;;2.80;;
69434;SDS011;56625;54.322;18.582;2023-04-24T13:43:33;6.40;;;3.00;;
69434;SDS011;56625;54.322;18.582;2023-04-24T13:46:01;8.20;;;2.90;;
69434;SDS011;56625;54.322;18.582;2023-04-24T13:48:30;6.20;;;2.70;;
69434;SDS011;56625;54.322;18.582;2023-04-24T13:50:58;6.00;;;2.40;;
69434;SDS011;56625;54.322;18.582;2023-04-24T13:53:26;9.50;;;3.20;;
69434;SDS011;56625;54.322;18.582;2023-04-24T13:55:55;7.60;;;3.10;;
69434;SDS011;56625;54.322;18.582;2023-04-24T13:58:29;8.30;;;2.70;;
69434;SDS011;56625;54.322;18.582;2023-04-24T14:01:03;12.00;;;3.20;;
69434;SDS011;56625;54.322;18.582;2023-04-24T14:03:33;7.30;;;3.40;;
69434;SDS011;56625;54.322;18.582;2023-04-24T14:06:01;9.30;;;3.30;;
69434;SDS011;56625;54.322;18.582;2023-04-24T14:08:30;8.30;;;3.10;;
69434;SDS011;56625;54.322;18.582;2023-04-24T14:10:58;8.50;;;3.40;;
69434;SDS011;56625;54.322;18.582;2023-04-24T14:13:26;7.90;;;3.40;;
69434;SDS011;56625;54.322;18.582;2023-04-24T14:15:55;8.00;;;2.90;;
69434;SDS011;56625;54.322;18.582;2023-04-24T14:18:23;7.90;;;3.60;;
69434;SDS011;56625;54.322;18.582;2023-04-24T14:20:51;8.90;;;3.40;;
69434;SDS011;56625;54.322;18.582;2023-04-24T14:23:19;9.30;;;3.60;;
69434;SDS011;56625;54.322;18.582;2023-04-24T14:25:47;7.80;;;3.60;;
69434;SDS011;56625;54.322;18.582;2023-04-24T14:28:19;7.40;;;3.50;;
69434;SDS011;56625;54.322;18.582;2023-04-24T14:30:48;7.80;;;3.60;;
69434;SDS011;56625;54.322;18.582;2023-04-24T14:33:17;8.50;;;3.40;;
69434;SDS011;56625;54.322;18.582;2023-04-24T14:35:46;7.30;;;3.30;;
69434;SDS011;56625;54.322;18.582;2023-04-24T14:38:14;6.70;;;3.20;;
69434;SDS011;56625;54.322;18.582;2023-04-24T14:40:42;6.80;;;2.50;;